sensor_id;sensor_type;location;lat;lon;timestamp;temperature;humidity
37274;DHT22;23161;51.250;5.554;2023-02-02T00:01:54;7.90;99.90
37274;DHT22;23161;51.250;5.554;2023-02-02T00:04:27;7.90;99.90
37274;DHT22;23161;51.250;5.554;2023-02-02T00:06:54;7.90;99.90
37274;DHT22;23161;51.250;5.554;2023-02-02T00:09:22;7.90;99.90
37274;DHT22;23161;51.250;5.554;2023-02-02T00:11:49;7.80;99.90
37274;DHT22;23161;51.250;5.554;2023-02-02T00:14:16;7.80;99.90
37274;DHT22;23161;51.250;5.554;2023-02-02T00:16:50;7.80;99.90
37274;DHT22;23161;51.250;5.554;2023-02-02T00:19:18;7.90;99.90
37274;DHT22;23161;51.250;5.554;2023-02-02T00:21:44;7.90;99.90
37274;DHT22;23161;51.250;5.554;2023-02-02T00:24:13;7.90;99.90
37274;DHT22;23161;51.250;5.554;2023-02-02T00:26:41;7.90;99.90
37274;DHT22;23161;51.250;5.554;2023-02-02T00:29:11;7.90;99.90
37274;DHT22;23161;51.250;5.554;2023-02-02T00:31:38;8.00;99.90
37274;DHT22;23161;51.250;5.554;2023-02-02T00:34:04;8.00;99.90
37274;DHT22;23161;51.250;5.554;2023-02-02T00:36:30;8.00;99.90
37274;DHT22;23161;51.250;5.554;2023-02-02T00:38:56;7.90;99.90
37274;DHT22;23161;51.250;5.554;2023-02-02T00:41:22;8.00;99.90
37274;DHT22;23161;51.250;5.554;2023-02-02T00:43:48;8.00;99.90
37274;DHT22;23161;51.250;5.554;2023-02-02T00:46:33;8.10;99.90
37274;DHT22;23161;51.250;5.554;2023-02-02T00:48:59;8.00;99.90
37274;DHT22;23161;51.250;5.554;2023-02-02T00:51:25;8.00;99.90
37274;DHT22;23161;51.250;5.554;2023-02-02T00:53:51;8.00;99.90
37274;DHT22;23161;51.250;5.554;2023-02-02T00:56:17;8.00;99.90
37274;DHT22;23161;51.250;5.554;2023-02-02T00:58:43;8.10;99.90
37274;DHT22;23161;51.250;5.554;2023-02-02T01:01:16;8.10;99.90
37274;DHT22;23161;51.250;5.554;2023-02-02T01:03:44;8.10;99.90
37274;DHT22;23161;51.250;5.554;2023-02-02T01:06:10;8.10;99.90
37274;DHT22;23161;51.250;5.554;2023-02-02T01:08:35;8.20;99.90
37274;DHT22;23161;51.250;5.554;2023-02-02T01:11:01;8.20;99.90
37274;DHT22;23161;51.250;5.554;2023-02-02T01:13:27;8.10;99.90
37274;DHT22;23161;51.250;5.554;2023-02-02T01:15:59;8.20;99.90
37274;DHT22;23161;51.250;5.554;2023-02-02T01:18:26;8.20;99.90
37274;DHT22;23161;51.250;5.554;2023-02-02T01:21:07;8.10;99.90
37274;DHT22;23161;51.250;5.554;2023-02-02T01:23:35;8.20;99.90
37274;DHT22;23161;51.250;5.554;2023-02-02T01:26:04;8.20;99.90
37274;DHT22;23161;51.250;5.554;2023-02-02T01:28:31;8.20;99.90
37274;DHT22;23161;51.250;5.554;2023-02-02T01:30:57;8.20;99.90
37274;DHT22;23161;51.250;5.554;2023-02-02T01:33:23;8.30;99.90
37274;DHT22;23161;51.250;5.554;2023-02-02T01:35:51;8.30;99.90
37274;DHT22;23161;51.250;5.554;2023-02-02T01:38:18;8.20;99.90
37274;DHT22;23161;51.250;5.554;2023-02-02T01:40:50;8.20;99.90
37274;DHT22;23161;51.250;5.554;2023-02-02T01:43:24;8.30;99.90
37274;DHT22;23161;51.250;5.554;2023-02-02T01:45:51;8.20;99.90
37274;DHT22;23161;51.250;5.554;2023-02-02T01:48:26;8.30;99.90
37274;DHT22;23161;51.250;5.554;2023-02-02T01:50:58;8.30;99.90
37274;DHT22;23161;51.250;5.554;2023-02-02T01:53:25;8.30;99.90
37274;DHT22;23161;51.250;5.554;2023-02-02T01:55:51;8.30;99.90
37274;DHT22;23161;51.250;5.554;2023-02-02T01:58:28;8.30;99.90
37274;DHT22;23161;51.250;5.554;2023-02-02T02:00:55;8.30;99.90
37274;DHT22;23161;51.250;5.554;2023-02-02T02:03:24;8.20;99.90
37274;DHT22;23161;51.250;5.554;2023-02-02T02:08:28;8.20;99.90
37274;DHT22;23161;51.250;5.554;2023-02-02T02:10:55;8.20;99.90
37274;DHT22;23161;51.250;5.554;2023-02-02T02:13:23;8.20;99.90
37274;DHT22;23161;51.250;5.554;2023-02-02T02:22:11;8.20;99.90
37274;DHT22;23161;51.250;5.554;2023-02-02T02:31:17;8.30;99.90
37274;DHT22;23161;51.250;5.554;2023-02-02T02:41:53;8.30;99.90
37274;DHT22;23161;51.250;5.554;2023-02-02T02:44:21;8.30;99.90
37274;DHT22;23161;51.250;5.554;2023-02-02T02:46:48;8.30;99.90
37274;DHT22;23161;51.250;5.554;2023-02-02T02:49:16;8.20;99.90
37274;DHT22;23161;51.250;5.554;2023-02-02T02:51:51;8.30;99.90
37274;DHT22;23161;51.250;5.554;2023-02-02T02:54:34;8.30;99.90
37274;DHT22;23161;51.250;5.554;2023-02-02T03:00:09;8.20;99.90
37274;DHT22;23161;51.250;5.554;2023-02-02T03:05:32;8.20;99.90
37274;DHT22;23161;51.250;5.554;2023-02-02T03:10:45;8.30;99.90
37274;DHT22;23161;51.250;5.554;2023-02-02T03:13:13;8.20;99.90
37274;DHT22;23161;51.250;5.554;2023-02-02T03:15:41;8.20;99.90
37274;DHT22;23161;51.250;5.554;2023-02-02T03:18:07;8.20;99.90
37274;DHT22;23161;51.250;5.554;2023-02-02T03:20:33;8.20;99.90
37274;DHT22;23161;51.250;5.554;2023-02-02T03:23:00;8.20;99.90
37274;DHT22;23161;51.250;5.554;2023-02-02T03:25:25;8.20;99.90
37274;DHT22;23161;51.250;5.554;2023-02-02T03:27:52;8.20;99.90
37274;DHT22;23161;51.250;5.554;2023-02-02T03:30:18;8.20;99.90
37274;DHT22;23161;51.250;5.554;2023-02-02T03:32:45;8.20;99.90
37274;DHT22;23161;51.250;5.554;2023-02-02T03:35:11;8.20;99.90
37274;DHT22;23161;51.250;5.554;2023-02-02T03:37:37;8.20;99.90
37274;DHT22;23161;51.250;5.554;2023-02-02T03:40:04;8.20;99.90
37274;DHT22;23161;51.250;5.554;2023-02-02T03:42:30;8.20;99.90
37274;DHT22;23161;51.250;5.554;2023-02-02T03:44:55;8.20;99.90
37274;DHT22;23161;51.250;5.554;2023-02-02T03:47:21;8.10;99.90
37274;DHT22;23161;51.250;5.554;2023-02-02T03:49:47;8.20;99.90
37274;DHT22;23161;51.250;5.554;2023-02-02T03:52:13;8.20;99.90
37274;DHT22;23161;51.250;5.554;2023-02-02T03:54:38;8.20;99.90
37274;DHT22;23161;51.250;5.554;2023-02-02T03:57:05;8.20;99.90
37274;DHT22;23161;51.250;5.554;2023-02-02T03:59:31;8.10;99.90
37274;DHT22;23161;51.250;5.554;2023-02-02T04:01:56;8.20;99.90
37274;DHT22;23161;51.250;5.554;2023-02-02T04:04:22;8.20;99.90
37274;DHT22;23161;51.250;5.554;2023-02-02T04:06:48;8.20;99.90
37274;DHT22;23161;51.250;5.554;2023-02-02T04:09:14;8.20;99.90
37274;DHT22;23161;51.250;5.554;2023-02-02T04:11:40;8.20;99.90
37274;DHT22;23161;51.250;5.554;2023-02-02T04:14:05;8.20;99.90
37274;DHT22;23161;51.250;5.554;2023-02-02T04:16:31;8.20;99.90
37274;DHT22;23161;51.250;5.554;2023-02-02T04:19:00;8.20;99.90
37274;DHT22;23161;51.250;5.554;2023-02-02T04:21:26;8.20;99.90
37274;DHT22;23161;51.250;5.554;2023-02-02T04:23:51;8.20;99.90
37274;DHT22;23161;51.250;5.554;2023-02-02T04:26:17;8.20;99.90
37274;DHT22;23161;51.250;5.554;2023-02-02T04:28:43;8.20;99.90
37274;DHT22;23161;51.250;5.554;2023-02-02T04:31:09;8.10;99.90
37274;DHT22;23161;51.250;5.554;2023-02-02T04:33:35;8.10;99.90
37274;DHT22;23161;51.250;5.554;2023-02-02T04:36:01;8.10;99.90
37274;DHT22;23161;51.250;5.554;2023-02-02T04:38:27;8.10;99.90
37274;DHT22;23161;51.250;5.554;2023-02-02T04:40:53;8.10;99.90
37274;DHT22;23161;51.250;5.554;2023-02-02T04:43:19;8.10;99.90
37274;DHT22;23161;51.250;5.554;2023-02-02T04:45:45;8.10;99.90
37274;DHT22;23161;51.250;5.554;2023-02-02T04:48:10;8.10;99.90
37274;DHT22;23161;51.250;5.554;2023-02-02T04:50:36;8.10;99.90
37274;DHT22;23161;51.250;5.554;2023-02-02T04:53:03;8.10;99.90
37274;DHT22;23161;51.250;5.554;2023-02-02T04:55:29;8.10;99.90
37274;DHT22;23161;51.250;5.554;2023-02-02T04:57:55;8.00;99.90
37274;DHT22;23161;51.250;5.554;2023-02-02T05:00:21;8.00;99.90
37274;DHT22;23161;51.250;5.554;2023-02-02T05:02:47;8.00;99.90
37274;DHT22;23161;51.250;5.554;2023-02-02T05:05:13;8.00;99.90
37274;DHT22;23161;51.250;5.554;2023-02-02T05:07:39;8.00;99.90
37274;DHT22;23161;51.250;5.554;2023-02-02T05:10:06;7.90;99.90
37274;DHT22;23161;51.250;5.554;2023-02-02T05:12:33;7.90;99.90
37274;DHT22;23161;51.250;5.554;2023-02-02T05:14:59;7.90;99.90
37274;DHT22;23161;51.250;5.554;2023-02-02T05:17:26;8.00;99.90
37274;DHT22;23161;51.250;5.554;2023-02-02T05:19:52;8.00;99.90
37274;DHT22;23161;51.250;5.554;2023-02-02T05:22:18;8.00;99.90
37274;DHT22;23161;51.250;5.554;2023-02-02T05:24:43;7.90;99.90
37274;DHT22;23161;51.250;5.554;2023-02-02T05:27:09;7.90;99.90
37274;DHT22;23161;51.250;5.554;2023-02-02T05:29:35;7.90;99.90
37274;DHT22;23161;51.250;5.554;2023-02-02T05:32:01;7.90;99.90
37274;DHT22;23161;51.250;5.554;2023-02-02T05:34:27;7.90;99.90
37274;DHT22;23161;51.250;5.554;2023-02-02T05:36:52;8.00;99.90
37274;DHT22;23161;51.250;5.554;2023-02-02T05:39:18;8.00;99.90
37274;DHT22;23161;51.250;5.554;2023-02-02T05:41:44;7.90;99.90
37274;DHT22;23161;51.250;5.554;2023-02-02T05:44:13;8.00;99.90
37274;DHT22;23161;51.250;5.554;2023-02-02T05:46:39;8.00;99.90
37274;DHT22;23161;51.250;5.554;2023-02-02T05:49:07;8.00;99.90
37274;DHT22;23161;51.250;5.554;2023-02-02T05:51:39;8.00;99.90
37274;DHT22;23161;51.250;5.554;2023-02-02T05:54:07;8.00;99.90
37274;DHT22;23161;51.250;5.554;2023-02-02T05:56:33;8.00;99.90
37274;DHT22;23161;51.250;5.554;2023-02-02T05:58:59;8.00;99.90
37274;DHT22;23161;51.250;5.554;2023-02-02T06:01:25;8.00;99.90
37274;DHT22;23161;51.250;5.554;2023-02-02T06:03:51;8.00;99.90
37274;DHT22;23161;51.250;5.554;2023-02-02T06:06:17;8.00;99.90
37274;DHT22;23161;51.250;5.554;2023-02-02T06:08:43;7.90;99.90
37274;DHT22;23161;51.250;5.554;2023-02-02T06:11:13;7.80;99.90
37274;DHT22;23161;51.250;5.554;2023-02-02T06:13:40;7.80;99.90
37274;DHT22;23161;51.250;5.554;2023-02-02T06:16:06;7.80;99.90
37274;DHT22;23161;51.250;5.554;2023-02-02T06:18:33;7.70;99.90
37274;DHT22;23161;51.250;5.554;2023-02-02T06:21:00;7.70;99.90
37274;DHT22;23161;51.250;5.554;2023-02-02T06:23:26;7.70;99.90
37274;DHT22;23161;51.250;5.554;2023-02-02T06:25:52;7.70;99.90
37274;DHT22;23161;51.250;5.554;2023-02-02T06:28:18;7.60;99.90
37274;DHT22;23161;51.250;5.554;2023-02-02T06:30:44;7.60;99.90
37274;DHT22;23161;51.250;5.554;2023-02-02T06:33:10;7.60;99.90
37274;DHT22;23161;51.250;5.554;2023-02-02T06:35:36;7.60;99.90
37274;DHT22;23161;51.250;5.554;2023-02-02T06:38:02;7.60;99.90
37274;DHT22;23161;51.250;5.554;2023-02-02T06:40:28;7.60;99.90
37274;DHT22;23161;51.250;5.554;2023-02-02T06:42:56;7.60;99.90
37274;DHT22;23161;51.250;5.554;2023-02-02T06:45:22;7.60;99.90
37274;DHT22;23161;51.250;5.554;2023-02-02T06:47:48;7.60;99.90
37274;DHT22;23161;51.250;5.554;2023-02-02T06:50:13;7.60;99.90
37274;DHT22;23161;51.250;5.554;2023-02-02T06:52:39;7.60;99.90
37274;DHT22;23161;51.250;5.554;2023-02-02T06:55:11;7.50;99.90
37274;DHT22;23161;51.250;5.554;2023-02-02T06:57:37;7.50;99.90
37274;DHT22;23161;51.250;5.554;2023-02-02T07:00:03;7.50;99.90
37274;DHT22;23161;51.250;5.554;2023-02-02T07:02:29;7.50;99.90
37274;DHT22;23161;51.250;5.554;2023-02-02T07:04:55;7.50;99.90
37274;DHT22;23161;51.250;5.554;2023-02-02T07:07:21;7.50;99.90
37274;DHT22;23161;51.250;5.554;2023-02-02T07:09:46;7.50;99.90
37274;DHT22;23161;51.250;5.554;2023-02-02T07:12:12;7.50;99.90
37274;DHT22;23161;51.250;5.554;2023-02-02T07:14:38;7.50;99.90
37274;DHT22;23161;51.250;5.554;2023-02-02T07:17:04;7.50;99.90
37274;DHT22;23161;51.250;5.554;2023-02-02T07:19:30;7.50;99.90
37274;DHT22;23161;51.250;5.554;2023-02-02T07:21:55;7.50;99.90
37274;DHT22;23161;51.250;5.554;2023-02-02T07:24:21;7.50;99.90
37274;DHT22;23161;51.250;5.554;2023-02-02T07:26:47;7.50;99.90
37274;DHT22;23161;51.250;5.554;2023-02-02T07:29:13;7.50;99.90
37274;DHT22;23161;51.250;5.554;2023-02-02T07:31:39;7.50;99.90
37274;DHT22;23161;51.250;5.554;2023-02-02T07:34:05;7.50;99.90
37274;DHT22;23161;51.250;5.554;2023-02-02T07:36:32;7.50;99.90
37274;DHT22;23161;51.250;5.554;2023-02-02T07:39:01;7.60;99.90
37274;DHT22;23161;51.250;5.554;2023-02-02T07:41:29;7.60;99.90
37274;DHT22;23161;51.250;5.554;2023-02-02T07:43:55;7.60;99.90
37274;DHT22;23161;51.250;5.554;2023-02-02T07:46:21;7.60;99.90
37274;DHT22;23161;51.250;5.554;2023-02-02T07:48:47;7.70;99.90
37274;DHT22;23161;51.250;5.554;2023-02-02T07:51:15;7.70;99.90
37274;DHT22;23161;51.250;5.554;2023-02-02T07:53:46;7.70;99.90
37274;DHT22;23161;51.250;5.554;2023-02-02T07:56:21;7.70;99.90
37274;DHT22;23161;51.250;5.554;2023-02-02T07:58:47;7.80;99.90
37274;DHT22;23161;51.250;5.554;2023-02-02T08:01:16;7.80;99.90
37274;DHT22;23161;51.250;5.554;2023-02-02T08:03:42;7.80;99.90
37274;DHT22;23161;51.250;5.554;2023-02-02T08:06:14;7.80;99.90
37274;DHT22;23161;51.250;5.554;2023-02-02T08:08:40;7.80;99.90
37274;DHT22;23161;51.250;5.554;2023-02-02T08:11:10;7.90;99.90
37274;DHT22;23161;51.250;5.554;2023-02-02T08:13:37;7.80;99.90
37274;DHT22;23161;51.250;5.554;2023-02-02T08:16:04;7.90;99.90
37274;DHT22;23161;51.250;5.554;2023-02-02T08:18:33;7.90;99.90
37274;DHT22;23161;51.250;5.554;2023-02-02T08:21:01;7.90;99.90
37274;DHT22;23161;51.250;5.554;2023-02-02T08:23:28;7.90;99.90
37274;DHT22;23161;51.250;5.554;2023-02-02T08:26:03;7.90;99.90
37274;DHT22;23161;51.250;5.554;2023-02-02T08:28:29;7.90;99.90
37274;DHT22;23161;51.250;5.554;2023-02-02T08:30:55;8.00;99.90
37274;DHT22;23161;51.250;5.554;2023-02-02T08:33:21;7.80;99.90
37274;DHT22;23161;51.250;5.554;2023-02-02T08:35:47;7.90;99.90
37274;DHT22;23161;51.250;5.554;2023-02-02T08:38:13;7.90;99.90
37274;DHT22;23161;51.250;5.554;2023-02-02T08:40:39;8.00;99.90
37274;DHT22;23161;51.250;5.554;2023-02-02T08:43:04;8.00;99.90
37274;DHT22;23161;51.250;5.554;2023-02-02T08:45:30;8.10;99.90
37274;DHT22;23161;51.250;5.554;2023-02-02T08:47:56;8.10;99.90
37274;DHT22;23161;51.250;5.554;2023-02-02T08:50:22;8.20;99.90
37274;DHT22;23161;51.250;5.554;2023-02-02T08:52:48;8.20;99.90
37274;DHT22;23161;51.250;5.554;2023-02-02T08:55:14;8.20;99.90
37274;DHT22;23161;51.250;5.554;2023-02-02T08:57:40;8.20;99.90
37274;DHT22;23161;51.250;5.554;2023-02-02T09:00:06;8.20;99.90
37274;DHT22;23161;51.250;5.554;2023-02-02T09:02:32;8.20;99.90
37274;DHT22;23161;51.250;5.554;2023-02-02T09:04:58;8.20;99.90
37274;DHT22;23161;51.250;5.554;2023-02-02T09:07:24;8.30;99.90
37274;DHT22;23161;51.250;5.554;2023-02-02T09:09:49;8.30;99.90
37274;DHT22;23161;51.250;5.554;2023-02-02T09:12:17;8.30;99.90
37274;DHT22;23161;51.250;5.554;2023-02-02T09:14:43;8.40;99.90
37274;DHT22;23161;51.250;5.554;2023-02-02T09:17:09;8.40;99.90
37274;DHT22;23161;51.250;5.554;2023-02-02T09:19:34;8.40;99.90
37274;DHT22;23161;51.250;5.554;2023-02-02T09:22:00;8.50;99.90
37274;DHT22;23161;51.250;5.554;2023-02-02T09:24:26;8.50;99.90
37274;DHT22;23161;51.250;5.554;2023-02-02T09:26:52;8.50;99.90
37274;DHT22;23161;51.250;5.554;2023-02-02T09:29:18;8.50;99.90
37274;DHT22;23161;51.250;5.554;2023-02-02T09:31:43;8.50;99.90
37274;DHT22;23161;51.250;5.554;2023-02-02T09:34:11;8.50;99.90
37274;DHT22;23161;51.250;5.554;2023-02-02T09:36:38;8.50;99.90
37274;DHT22;23161;51.250;5.554;2023-02-02T09:39:05;8.60;99.90
37274;DHT22;23161;51.250;5.554;2023-02-02T09:49:46;8.80;99.90
37274;DHT22;23161;51.250;5.554;2023-02-02T09:55:02;9.00;99.90
37274;DHT22;23161;51.250;5.554;2023-02-02T09:57:36;9.10;99.90
37274;DHT22;23161;51.250;5.554;2023-02-02T10:00:03;9.10;99.90
37274;DHT22;23161;51.250;5.554;2023-02-02T10:02:39;9.20;99.90
37274;DHT22;23161;51.250;5.554;2023-02-02T10:05:41;9.20;99.90
37274;DHT22;23161;51.250;5.554;2023-02-02T10:08:01;9.20;99.90
37274;DHT22;23161;51.250;5.554;2023-02-02T10:10:32;9.10;99.90
37274;DHT22;23161;51.250;5.554;2023-02-02T10:13:15;9.10;99.90
37274;DHT22;23161;51.250;5.554;2023-02-02T10:15:57;9.10;99.90
37274;DHT22;23161;51.250;5.554;2023-02-02T10:18:40;9.20;99.90
37274;DHT22;23161;51.250;5.554;2023-02-02T10:21:12;9.10;99.90
37274;DHT22;23161;51.250;5.554;2023-02-02T10:23:42;9.10;99.90
37274;DHT22;23161;51.250;5.554;2023-02-02T10:26:19;9.10;99.90
37274;DHT22;23161;51.250;5.554;2023-02-02T10:31:54;9.10;99.90
37274;DHT22;23161;51.250;5.554;2023-02-02T10:43:41;9.10;99.90
37274;DHT22;23161;51.250;5.554;2023-02-02T10:46:41;9.20;99.90
37274;DHT22;23161;51.250;5.554;2023-02-02T10:49:13;9.20;99.90
37274;DHT22;23161;51.250;5.554;2023-02-02T10:51:40;9.40;99.90
37274;DHT22;23161;51.250;5.554;2023-02-02T10:57:13;9.50;99.90
37274;DHT22;23161;51.250;5.554;2023-02-02T10:59:51;9.70;99.90
37274;DHT22;23161;51.250;5.554;2023-02-02T11:02:20;9.80;99.90
37274;DHT22;23161;51.250;5.554;2023-02-02T11:04:46;9.80;99.90
37274;DHT22;23161;51.250;5.554;2023-02-02T11:07:30;9.80;99.90
37274;DHT22;23161;51.250;5.554;2023-02-02T11:09:56;9.80;99.90
37274;DHT22;23161;51.250;5.554;2023-02-02T11:12:34;9.70;99.90
37274;DHT22;23161;51.250;5.554;2023-02-02T11:15:02;9.80;99.90
37274;DHT22;23161;51.250;5.554;2023-02-02T11:17:32;9.80;99.90
37274;DHT22;23161;51.250;5.554;2023-02-02T11:19:59;9.80;99.90
37274;DHT22;23161;51.250;5.554;2023-02-02T11:22:35;9.80;99.90
37274;DHT22;23161;51.250;5.554;2023-02-02T11:27:32;9.60;99.90
37274;DHT22;23161;51.250;5.554;2023-02-02T11:30:11;9.60;99.90
37274;DHT22;23161;51.250;5.554;2023-02-02T11:32:43;9.60;99.90
37274;DHT22;23161;51.250;5.554;2023-02-02T11:35:19;9.60;99.90
37274;DHT22;23161;51.250;5.554;2023-02-02T11:42:51;9.50;99.90
37274;DHT22;23161;51.250;5.554;2023-02-02T11:45:21;9.50;99.90
37274;DHT22;23161;51.250;5.554;2023-02-02T11:47:50;9.50;99.90
37274;DHT22;23161;51.250;5.554;2023-02-02T11:50:25;9.50;99.90
37274;DHT22;23161;51.250;5.554;2023-02-02T11:52:52;9.50;99.90
37274;DHT22;23161;51.250;5.554;2023-02-02T11:55:23;9.40;99.90
37274;DHT22;23161;51.250;5.554;2023-02-02T11:58:17;9.50;99.90
37274;DHT22;23161;51.250;5.554;2023-02-02T12:00:47;9.50;99.90
37274;DHT22;23161;51.250;5.554;2023-02-02T12:03:37;9.50;99.90
37274;DHT22;23161;51.250;5.554;2023-02-02T12:06:35;9.60;99.90
37274;DHT22;23161;51.250;5.554;2023-02-02T12:09:16;9.70;99.90
37274;DHT22;23161;51.250;5.554;2023-02-02T12:27:56;9.90;99.90
37274;DHT22;23161;51.250;5.554;2023-02-02T12:30:40;9.90;99.90
37274;DHT22;23161;51.250;5.554;2023-02-02T12:33:26;9.90;99.90
37274;DHT22;23161;51.250;5.554;2023-02-02T12:36:07;9.90;99.90
37274;DHT22;23161;51.250;5.554;2023-02-02T12:44:57;9.90;99.90
37274;DHT22;23161;51.250;5.554;2023-02-02T12:53:35;9.60;99.90
37274;DHT22;23161;51.250;5.554;2023-02-02T13:12:38;9.80;99.90
37274;DHT22;23161;51.250;5.554;2023-02-02T13:15:11;9.80;99.90
37274;DHT22;23161;51.250;5.554;2023-02-02T13:17:42;9.80;99.90
37274;DHT22;23161;51.250;5.554;2023-02-02T13:22:48;9.70;99.90
37274;DHT22;23161;51.250;5.554;2023-02-02T13:25:29;9.60;99.90
37274;DHT22;23161;51.250;5.554;2023-02-02T13:28:01;9.70;99.90
37274;DHT22;23161;51.250;5.554;2023-02-02T13:30:37;9.70;99.90
37274;DHT22;23161;51.250;5.554;2023-02-02T13:33:14;9.70;99.90
37274;DHT22;23161;51.250;5.554;2023-02-02T13:38:28;9.70;99.90
37274;DHT22;23161;51.250;5.554;2023-02-02T13:40:59;9.70;99.90
37274;DHT22;23161;51.250;5.554;2023-02-02T13:49:23;9.60;99.90
37274;DHT22;23161;51.250;5.554;2023-02-02T13:55:19;9.50;99.90
37274;DHT22;23161;51.250;5.554;2023-02-02T13:58:10;9.40;99.90
37274;DHT22;23161;51.250;5.554;2023-02-02T14:01:06;9.30;99.90
37274;DHT22;23161;51.250;5.554;2023-02-02T14:03:37;9.30;99.90
37274;DHT22;23161;51.250;5.554;2023-02-02T14:08:30;9.20;99.90
37274;DHT22;23161;51.250;5.554;2023-02-02T14:11:01;9.30;99.90
37274;DHT22;23161;51.250;5.554;2023-02-02T14:13:44;9.20;99.90
37274;DHT22;23161;51.250;5.554;2023-02-02T14:19:07;9.40;99.90
37274;DHT22;23161;51.250;5.554;2023-02-02T14:26:54;9.60;99.90
37274;DHT22;23161;51.250;5.554;2023-02-02T14:34:41;9.80;99.90
37274;DHT22;23161;51.250;5.554;2023-02-02T14:45:37;9.50;99.90
37274;DHT22;23161;51.250;5.554;2023-02-02T14:48:22;9.50;99.90
37274;DHT22;23161;51.250;5.554;2023-02-02T14:50:57;9.40;99.90
37274;DHT22;23161;51.250;5.554;2023-02-02T14:53:36;9.40;99.90
37274;DHT22;23161;51.250;5.554;2023-02-02T14:56:05;9.40;99.90
37274;DHT22;23161;51.250;5.554;2023-02-02T15:06:44;9.20;99.90
37274;DHT22;23161;51.250;5.554;2023-02-02T15:23:06;9.10;99.90
37274;DHT22;23161;51.250;5.554;2023-02-02T15:31:38;9.10;99.90
37274;DHT22;23161;51.250;5.554;2023-02-02T15:36:43;9.00;99.90
37274;DHT22;23161;51.250;5.554;2023-02-02T15:41:49;9.00;99.90
37274;DHT22;23161;51.250;5.554;2023-02-02T15:44:37;9.00;99.90
37274;DHT22;23161;51.250;5.554;2023-02-02T15:47:13;9.00;99.90
37274;DHT22;23161;51.250;5.554;2023-02-02T15:49:40;8.90;99.90
37274;DHT22;23161;51.250;5.554;2023-02-02T15:52:19;8.90;99.90
37274;DHT22;23161;51.250;5.554;2023-02-02T15:54:57;8.90;99.90
37274;DHT22;23161;51.250;5.554;2023-02-02T15:57:34;8.80;99.90
37274;DHT22;23161;51.250;5.554;2023-02-02T16:07:58;8.70;99.90
37274;DHT22;23161;51.250;5.554;2023-02-02T16:10:25;8.70;99.90
37274;DHT22;23161;51.250;5.554;2023-02-02T16:12:51;8.70;99.90
37274;DHT22;23161;51.250;5.554;2023-02-02T16:15:20;8.70;99.90
37274;DHT22;23161;51.250;5.554;2023-02-02T16:17:59;8.60;99.90
37274;DHT22;23161;51.250;5.554;2023-02-02T16:20:27;8.60;99.90
37274;DHT22;23161;51.250;5.554;2023-02-02T16:22:55;8.60;99.90
37274;DHT22;23161;51.250;5.554;2023-02-02T16:25:29;8.60;99.90
37274;DHT22;23161;51.250;5.554;2023-02-02T16:27:56;8.60;99.90
37274;DHT22;23161;51.250;5.554;2023-02-02T16:30:30;8.60;99.90
37274;DHT22;23161;51.250;5.554;2023-02-02T16:32:56;8.50;99.90
37274;DHT22;23161;51.250;5.554;2023-02-02T16:35:34;8.60;99.90
37274;DHT22;23161;51.250;5.554;2023-02-02T16:38:34;8.60;99.90
37274;DHT22;23161;51.250;5.554;2023-02-02T16:41:09;8.60;99.90
37274;DHT22;23161;51.250;5.554;2023-02-02T16:43:38;8.60;99.90
37274;DHT22;23161;51.250;5.554;2023-02-02T16:46:10;8.60;99.90
37274;DHT22;23161;51.250;5.554;2023-02-02T16:48:58;8.60;99.90
37274;DHT22;23161;51.250;5.554;2023-02-02T16:51:28;8.60;99.90
37274;DHT22;23161;51.250;5.554;2023-02-02T16:59:25;8.60;99.90
37274;DHT22;23161;51.250;5.554;2023-02-02T17:01:55;8.50;99.90
37274;DHT22;23161;51.250;5.554;2023-02-02T17:04:28;8.50;99.90
37274;DHT22;23161;51.250;5.554;2023-02-02T17:06:57;8.60;99.90
37274;DHT22;23161;51.250;5.554;2023-02-02T17:09:37;8.50;99.90
37274;DHT22;23161;51.250;5.554;2023-02-02T17:17:44;8.60;99.90
37274;DHT22;23161;51.250;5.554;2023-02-02T17:20:13;8.60;99.90
37274;DHT22;23161;51.250;5.554;2023-02-02T17:22:44;8.60;99.90
37274;DHT22;23161;51.250;5.554;2023-02-02T17:25:57;8.60;99.90
37274;DHT22;23161;51.250;5.554;2023-02-02T17:28:06;8.70;99.90
37274;DHT22;23161;51.250;5.554;2023-02-02T17:30:34;8.60;99.90
37274;DHT22;23161;51.250;5.554;2023-02-02T17:33:00;8.60;99.90
37274;DHT22;23161;51.250;5.554;2023-02-02T17:35:34;8.60;99.90
37274;DHT22;23161;51.250;5.554;2023-02-02T17:38:04;8.60;99.90
37274;DHT22;23161;51.250;5.554;2023-02-02T17:40:32;8.60;99.90
37274;DHT22;23161;51.250;5.554;2023-02-02T17:42:58;8.60;99.90
37274;DHT22;23161;51.250;5.554;2023-02-02T17:45:32;8.60;99.90
37274;DHT22;23161;51.250;5.554;2023-02-02T17:47:58;8.50;99.90
37274;DHT22;23161;51.250;5.554;2023-02-02T17:50:25;8.50;99.90
37274;DHT22;23161;51.250;5.554;2023-02-02T17:52:51;8.40;99.90
37274;DHT22;23161;51.250;5.554;2023-02-02T17:55:30;8.40;99.90
37274;DHT22;23161;51.250;5.554;2023-02-02T17:57:56;8.40;99.90
37274;DHT22;23161;51.250;5.554;2023-02-02T18:00:24;8.50;99.90
37274;DHT22;23161;51.250;5.554;2023-02-02T18:02:54;8.50;99.90
37274;DHT22;23161;51.250;5.554;2023-02-02T18:05:21;8.60;99.90
37274;DHT22;23161;51.250;5.554;2023-02-02T18:07:47;8.60;99.90
37274;DHT22;23161;51.250;5.554;2023-02-02T18:10:15;8.60;99.90
37274;DHT22;23161;51.250;5.554;2023-02-02T18:12:41;8.60;99.90
37274;DHT22;23161;51.250;5.554;2023-02-02T18:15:11;8.60;99.90
37274;DHT22;23161;51.250;5.554;2023-02-02T18:17:38;8.60;99.90
37274;DHT22;23161;51.250;5.554;2023-02-02T18:20:04;8.60;99.90
37274;DHT22;23161;51.250;5.554;2023-02-02T18:22:30;8.60;99.90
37274;DHT22;23161;51.250;5.554;2023-02-02T18:24:56;8.60;99.90
37274;DHT22;23161;51.250;5.554;2023-02-02T18:27:23;8.60;99.90
37274;DHT22;23161;51.250;5.554;2023-02-02T18:29:49;8.60;99.90
37274;DHT22;23161;51.250;5.554;2023-02-02T18:32:15;8.60;99.90
37274;DHT22;23161;51.250;5.554;2023-02-02T18:34:43;8.60;99.90
37274;DHT22;23161;51.250;5.554;2023-02-02T18:37:09;8.60;99.90
37274;DHT22;23161;51.250;5.554;2023-02-02T18:39:35;8.50;99.90
37274;DHT22;23161;51.250;5.554;2023-02-02T18:42:01;8.50;99.90
37274;DHT22;23161;51.250;5.554;2023-02-02T18:44:27;8.50;99.90
37274;DHT22;23161;51.250;5.554;2023-02-02T18:46:53;8.60;99.90
37274;DHT22;23161;51.250;5.554;2023-02-02T18:49:20;8.60;99.90
37274;DHT22;23161;51.250;5.554;2023-02-02T18:51:46;8.60;99.90
37274;DHT22;23161;51.250;5.554;2023-02-02T18:54:13;8.60;99.90
37274;DHT22;23161;51.250;5.554;2023-02-02T18:56:39;8.60;99.90
37274;DHT22;23161;51.250;5.554;2023-02-02T18:59:05;8.60;99.90
37274;DHT22;23161;51.250;5.554;2023-02-02T19:01:32;8.60;99.90
37274;DHT22;23161;51.250;5.554;2023-02-02T19:03:59;8.60;99.90
37274;DHT22;23161;51.250;5.554;2023-02-02T19:06:25;8.60;99.90
37274;DHT22;23161;51.250;5.554;2023-02-02T19:09:10;8.60;99.90
37274;DHT22;23161;51.250;5.554;2023-02-02T19:11:41;8.60;99.90
37274;DHT22;23161;51.250;5.554;2023-02-02T19:14:12;8.60;99.90
37274;DHT22;23161;51.250;5.554;2023-02-02T19:16:38;8.60;99.90
37274;DHT22;23161;51.250;5.554;2023-02-02T19:21:58;8.60;99.90
37274;DHT22;23161;51.250;5.554;2023-02-02T19:24:26;8.60;99.90